createdAt,value
2019-01-23T00:00:32.059Z,9.77
2019-01-23T00:03:00.748Z,15.23
2019-01-23T00:05:29.708Z,9.23
2019-01-23T00:07:58.576Z,2.93
2019-01-23T00:10:27.304Z,10.43
2019-01-23T00:12:55.984Z,4.40
2019-01-23T00:15:25.537Z,6.37
2019-01-23T00:17:54.482Z,7.27
2019-01-23T00:20:23.236Z,13.40
2019-01-23T00:22:51.951Z,10.37
2019-01-23T00:25:20.638Z,14.80
2019-01-23T00:27:49.342Z,16.67
2019-01-23T00:30:18.207Z,13.13
2019-01-23T00:32:46.905Z,17.10
2019-01-23T00:35:15.636Z,8.47
2019-01-23T00:37:44.790Z,9.00
2019-01-23T00:40:13.555Z,10.30
2019-01-23T00:42:42.706Z,6.47
2019-01-23T00:45:11.718Z,13.37
2019-01-23T00:47:41.646Z,11.07
2019-01-23T00:50:10.658Z,9.13
2019-01-23T00:52:39.486Z,9.50
2019-01-23T00:55:10.131Z,9.87
2019-01-23T00:57:38.814Z,10.80
2019-01-23T01:00:17.827Z,5.87
2019-01-23T01:02:46.929Z,2.45
2019-01-23T01:05:16.504Z,16.20
2019-01-23T01:07:45.285Z,10.20
2019-01-23T01:10:14.919Z,8.10
2019-01-23T01:12:43.741Z,4.97
2019-01-23T01:15:13.466Z,14.53
2019-01-23T01:17:42.515Z,13.40
2019-01-23T01:20:11.794Z,16.60
2019-01-23T01:22:40.887Z,5.57
2019-01-23T01:25:12.118Z,10.17
2019-01-23T01:27:40.867Z,8.40
2019-01-23T01:30:15.779Z,14.43
2019-01-23T01:32:44.483Z,16.40
2019-01-23T01:35:13.269Z,5.43
2019-01-23T01:37:42.123Z,6.30
2019-01-23T01:40:12.558Z,9.47
2019-01-23T01:42:41.474Z,6.17
2019-01-23T01:45:10.572Z,6.07
2019-01-23T01:47:39.330Z,7.60
2019-01-23T01:50:11.074Z,15.43
2019-01-23T01:52:39.977Z,3.43
2019-01-23T01:55:09.046Z,5.53
2019-01-23T01:57:37.841Z,6.07
2019-01-23T02:00:12.578Z,9.37
2019-01-23T02:02:41.260Z,9.57
2019-01-23T02:05:10.538Z,13.40
2019-01-23T02:07:39.390Z,11.37
2019-01-23T02:10:10.494Z,6.77
2019-01-23T02:12:39.284Z,4.97
2019-01-23T02:15:09.469Z,7.50
2019-01-23T02:17:38.234Z,5.30
2019-01-23T02:20:10.299Z,9.60
2019-01-23T02:22:39.540Z,5.07
2019-01-23T02:25:09.039Z,7.10
2019-01-23T02:27:38.162Z,3.87
2019-01-23T02:30:08.840Z,9.30
2019-01-23T02:32:37.904Z,5.10
2019-01-23T02:35:08.693Z,2.00
2019-01-23T02:37:37.462Z,3.93
2019-01-23T02:40:08.555Z,13.57
2019-01-23T02:42:40.786Z,11.60
2019-01-23T02:45:09.862Z,15.47
2019-01-23T02:47:38.534Z,5.37
2019-01-23T02:50:07.473Z,5.63
2019-01-23T02:52:36.623Z,4.70
2019-01-23T02:55:06.219Z,12.73
2019-01-23T02:57:34.909Z,6.60
2019-01-23T03:00:05.044Z,10.70
2019-01-23T03:02:35.697Z,8.20
2019-01-23T03:05:05.269Z,13.80
2019-01-23T03:07:34.296Z,4.17
2019-01-23T03:10:03.440Z,6.87
2019-01-23T03:12:32.255Z,4.17
2019-01-23T03:15:03.325Z,13.83
2019-01-23T03:17:32.078Z,8.97
2019-01-23T03:20:01.101Z,11.53
2019-01-23T03:22:29.913Z,10.37
2019-01-23T03:24:58.619Z,5.30
2019-01-23T03:27:27.325Z,6.10
2019-01-23T03:29:56.542Z,4.33
2019-01-23T03:32:25.251Z,12.40
2019-01-23T03:34:53.931Z,15.53
2019-01-23T03:37:22.884Z,11.35
2019-01-23T03:39:51.814Z,4.97
2019-01-23T03:42:20.745Z,5.57
2019-01-23T03:44:49.772Z,8.47
2019-01-23T03:47:18.440Z,9.80
2019-01-23T03:49:47.212Z,5.63
2019-01-23T03:52:15.937Z,11.43
2019-01-23T03:54:44.772Z,12.33
2019-01-23T03:57:13.577Z,6.85
2019-01-23T03:59:42.402Z,13.43
2019-01-23T04:02:11.183Z,13.17
2019-01-23T04:04:40.118Z,9.83
2019-01-23T04:07:08.827Z,9.27
2019-01-23T04:09:37.507Z,13.57
2019-01-23T04:12:06.211Z,12.67
2019-01-23T04:14:34.970Z,10.93
2019-01-23T04:17:03.764Z,10.33
2019-01-23T04:19:32.453Z,6.67
2019-01-23T04:22:01.158Z,10.43
2019-01-23T04:24:30.071Z,5.13
2019-01-23T04:26:58.952Z,11.03
2019-01-23T04:29:27.991Z,6.57
2019-01-23T04:31:59.796Z,4.03
2019-01-23T04:34:28.494Z,10.93
2019-01-23T04:36:59.782Z,6.43
2019-01-23T04:39:28.446Z,5.37
2019-01-23T04:42:00.721Z,13.57
2019-01-23T04:44:29.561Z,16.43
2019-01-23T04:46:58.326Z,13.40
2019-01-23T04:49:27.065Z,14.47
2019-01-23T04:52:04.408Z,9.27
2019-01-23T04:54:33.052Z,8.57
2019-01-23T04:57:03.335Z,14.20
2019-01-23T04:59:32.031Z,7.03
2019-01-23T05:02:03.638Z,14.57
2019-01-23T05:04:32.390Z,13.63
2019-01-23T05:07:01.129Z,14.90
2019-01-23T05:09:30.063Z,12.97
2019-01-23T05:12:00.379Z,6.72
2019-01-23T05:14:29.353Z,12.20
2019-01-23T05:16:58.288Z,12.20
2019-01-23T05:19:26.957Z,8.60
2019-01-23T05:22:00.155Z,6.53
2019-01-23T05:24:28.829Z,7.53
2019-01-23T05:26:57.544Z,9.83
2019-01-23T05:29:26.265Z,12.00
2019-01-23T05:31:55.186Z,5.10
2019-01-23T05:34:23.867Z,8.63
2019-01-23T05:36:56.528Z,12.40
2019-01-23T05:39:24.695Z,11.50
2019-01-23T05:41:53.641Z,5.30
2019-01-23T05:44:22.875Z,9.67
2019-01-23T05:46:59.423Z,16.93
2019-01-23T05:49:28.446Z,9.77
2019-01-23T05:51:57.298Z,12.83
2019-01-23T05:54:25.972Z,13.93
2019-01-23T05:56:54.927Z,9.03
2019-01-23T05:59:25.011Z,7.77
2019-01-23T06:01:53.867Z,7.07
2019-01-23T06:04:22.655Z,13.93
2019-01-23T06:06:53.634Z,10.77
2019-01-23T06:09:22.847Z,9.90
2019-01-23T06:11:51.681Z,9.57
2019-01-23T06:14:20.542Z,7.33
2019-01-23T06:16:49.789Z,8.47
2019-01-23T06:19:18.558Z,15.77
2019-01-23T06:21:47.912Z,6.13
2019-01-23T06:24:16.583Z,5.77
2019-01-23T06:26:45.249Z,9.87
2019-01-23T06:29:13.995Z,15.97
2019-01-23T06:31:43.190Z,11.93
2019-01-23T06:34:11.874Z,16.43
2019-01-23T06:36:40.722Z,15.70
2019-01-23T06:39:09.470Z,9.93
2019-01-23T06:41:38.721Z,19.53
2019-01-23T06:44:07.444Z,12.30
2019-01-23T06:46:36.159Z,7.67
2019-01-23T06:49:04.852Z,13.50
2019-01-23T06:51:33.652Z,8.47
2019-01-23T06:54:02.609Z,10.83
2019-01-23T06:56:31.511Z,8.60
2019-01-23T06:59:00.598Z,6.47
2019-01-23T07:01:30.509Z,15.83
2019-01-23T07:03:59.446Z,8.13
2019-01-23T07:06:28.149Z,4.17
2019-01-23T07:08:56.821Z,14.77
2019-01-23T07:11:25.558Z,18.17
2019-01-23T07:13:54.249Z,9.90
2019-01-23T07:16:22.994Z,11.10
2019-01-23T07:18:51.714Z,3.57
2019-01-23T07:21:20.684Z,12.70
2019-01-23T07:23:49.595Z,9.23
2019-01-23T07:26:18.367Z,14.60
2019-01-23T07:28:49.353Z,12.13
2019-01-23T07:31:17.770Z,9.87
2019-01-23T07:33:46.454Z,12.80
2019-01-23T07:36:15.270Z,5.63
2019-01-23T07:38:44.195Z,15.40
2019-01-23T07:41:12.942Z,6.93
2019-01-23T07:43:41.662Z,8.83
2019-01-23T07:46:10.631Z,10.00
2019-01-23T07:48:39.347Z,18.83
2019-01-23T07:51:08.298Z,20.50
2019-01-23T07:53:37.208Z,11.47
2019-01-23T07:56:06.511Z,22.70
2019-01-23T07:58:35.893Z,14.17
2019-01-23T08:01:04.857Z,9.10
2019-01-23T08:03:34.552Z,19.93
2019-01-23T08:06:03.495Z,15.83
2019-01-23T08:08:32.380Z,14.57
2019-01-23T08:11:01.166Z,26.07
2019-01-23T08:13:30.242Z,16.80
2019-01-23T08:15:59.150Z,15.97
2019-01-23T08:18:27.837Z,6.70
2019-01-23T08:20:56.859Z,16.73
2019-01-23T08:23:25.785Z,19.43
2019-01-23T08:25:54.641Z,21.07
2019-01-23T08:28:23.480Z,27.60
2019-01-23T08:30:52.331Z,14.43
2019-01-23T08:33:21.112Z,14.83
2019-01-23T08:35:49.925Z,11.57
2019-01-23T08:38:18.601Z,25.23
2019-01-23T08:40:47.741Z,16.70
2019-01-23T08:43:16.847Z,14.07
2019-01-23T08:45:45.848Z,14.57
2019-01-23T08:48:14.825Z,28.07
2019-01-23T08:50:45.447Z,20.70
2019-01-23T08:53:14.473Z,29.00
2019-01-23T08:55:43.406Z,14.97
2019-01-23T08:58:12.297Z,14.77
2019-01-23T09:00:45.707Z,16.53
2019-01-23T09:03:11.487Z,15.73
2019-01-23T09:05:40.421Z,24.33
2019-01-23T09:08:09.239Z,10.10
2019-01-23T09:10:38.127Z,13.87
2019-01-23T09:13:07.392Z,11.60
2019-01-23T09:15:36.169Z,11.43
2019-01-23T09:18:07.090Z,18.00
2019-01-23T09:20:36.261Z,24.80
2019-01-23T09:23:05.273Z,27.47
2019-01-23T09:25:34.163Z,21.10
2019-01-23T09:28:02.892Z,28.43
2019-01-23T09:30:55.141Z,31.20
2019-01-23T09:33:58.505Z,25.03
2019-01-23T09:36:54.021Z,15.88
2019-01-23T09:39:36.986Z,19.03
2019-01-23T09:42:43.930Z,11.03
2019-01-23T09:45:53.569Z,28.27
2019-01-23T09:48:34.459Z,32.33
2019-01-23T09:51:46.217Z,22.97
2019-01-23T09:54:15.929Z,32.40
2019-01-23T09:56:47.728Z,15.33
2019-01-23T09:59:16.723Z,36.37
2019-01-23T10:01:46.594Z,40.87
2019-01-23T10:04:15.504Z,41.50
2019-01-23T10:06:44.710Z,34.70
2019-01-23T10:09:16.639Z,23.90
2019-01-23T10:11:46.474Z,10.33
2019-01-23T10:14:15.522Z,39.13
2019-01-23T10:16:46.000Z,13.53
2019-01-23T10:19:14.698Z,40.50
2019-01-23T10:21:46.329Z,37.27
2019-01-23T10:24:16.594Z,28.43
2019-01-23T10:26:47.510Z,16.83
2019-01-23T10:29:16.321Z,35.27
2019-01-23T10:31:48.082Z,29.37
2019-01-23T10:34:18.102Z,28.97
2019-01-23T10:36:49.665Z,21.43
2019-01-23T10:39:18.478Z,26.13
2019-01-23T10:41:51.500Z,29.57
2019-01-23T10:44:20.534Z,23.50
2019-01-23T10:46:51.748Z,30.60
2019-01-23T10:49:20.488Z,11.00
2019-01-23T10:51:51.574Z,24.73
2019-01-23T10:54:20.498Z,25.73
2019-01-23T10:56:49.665Z,31.50
2019-01-23T10:59:18.718Z,26.90
2019-01-23T11:01:49.755Z,30.07
2019-01-23T11:04:18.789Z,32.20
2019-01-23T11:06:51.622Z,19.33
2019-01-23T11:09:20.310Z,15.77
2019-01-23T11:11:53.205Z,17.63
2019-01-23T11:14:22.016Z,25.70
2019-01-23T11:16:50.738Z,16.07
2019-01-23T11:19:19.432Z,31.33
2019-01-23T11:21:48.227Z,26.30
2019-01-23T11:24:17.057Z,28.53
2019-01-23T11:26:48.810Z,19.17
2019-01-23T11:29:18.113Z,30.47
2019-01-23T11:31:47.256Z,21.77
2019-01-23T11:34:15.948Z,19.53
2019-01-23T11:36:45.749Z,28.77
2019-01-23T11:39:14.539Z,24.37
2019-01-23T11:41:43.294Z,42.87
2019-01-23T11:44:12.409Z,19.97
2019-01-23T11:46:41.225Z,26.13
2019-01-23T11:49:10.515Z,25.13
2019-01-23T11:51:39.424Z,18.30
2019-01-23T11:54:08.191Z,19.53
2019-01-23T11:56:38.166Z,18.20
2019-01-23T11:59:07.019Z,22.57
2019-01-23T12:01:35.869Z,29.60
2019-01-23T12:04:04.731Z,26.17
2019-01-23T12:06:33.505Z,14.70
2019-01-23T12:09:02.362Z,18.77
2019-01-23T12:11:31.489Z,22.03
2019-01-23T12:14:22.914Z,29.57
2019-01-23T12:16:51.962Z,19.67
2019-01-23T12:19:20.738Z,23.93
2019-01-23T12:21:49.745Z,19.20
2019-01-23T12:24:18.554Z,20.77
2019-01-23T12:26:51.877Z,21.87
2019-01-23T12:29:20.590Z,21.50
2019-01-23T12:31:49.391Z,15.57
2019-01-23T12:34:18.400Z,30.57
2019-01-23T12:36:51.038Z,20.17
2019-01-23T12:39:19.769Z,24.43
2019-01-23T12:41:50.854Z,19.20
2019-01-23T12:44:20.103Z,35.50
2019-01-23T12:46:48.866Z,29.43
2019-01-23T12:49:17.642Z,18.90
2019-01-23T12:51:46.361Z,28.23
2019-01-23T12:54:15.333Z,20.20
2019-01-23T12:56:44.232Z,23.13
2019-01-23T12:59:13.333Z,18.67
2019-01-23T13:01:42.464Z,23.23
2019-01-23T13:04:11.627Z,20.80
2019-01-23T13:06:44.842Z,20.07
2019-01-23T13:09:13.802Z,14.30
2019-01-23T13:11:42.544Z,20.10
2019-01-23T13:14:11.441Z,18.57
2019-01-23T13:16:42.114Z,18.47
2019-01-23T13:19:10.814Z,13.33
2019-01-23T13:21:39.519Z,20.57
2019-01-23T13:24:08.259Z,15.87
2019-01-23T13:26:37.282Z,15.23
2019-01-23T13:29:06.614Z,19.17
2019-01-23T13:31:35.333Z,25.23
2019-01-23T13:34:04.399Z,19.07
2019-01-23T13:36:33.165Z,26.90
2019-01-23T13:39:02.144Z,18.63
2019-01-23T13:41:30.897Z,17.03
2019-01-23T13:43:59.970Z,12.00
2019-01-23T13:46:29.240Z,16.67
2019-01-23T13:48:57.948Z,25.73
2019-01-23T13:51:27.690Z,25.03
2019-01-23T13:53:56.355Z,24.80
2019-01-23T13:56:25.406Z,26.10
2019-01-23T13:58:56.578Z,16.43
2019-01-23T14:01:25.417Z,23.20
2019-01-23T14:03:54.585Z,24.37
2019-01-23T14:06:23.281Z,15.87
2019-01-23T14:08:51.945Z,15.33
2019-01-23T14:11:20.595Z,17.83
2019-01-23T14:13:49.609Z,16.50
2019-01-23T14:16:18.431Z,21.90
2019-01-23T14:18:48.246Z,19.05
2019-01-23T14:21:16.943Z,13.17
2019-01-23T14:23:45.606Z,14.63
2019-01-23T14:26:14.262Z,15.97
2019-01-23T14:28:43.037Z,20.57
2019-01-23T14:31:11.980Z,16.20
2019-01-23T14:33:40.648Z,12.43
2019-01-23T14:36:09.470Z,19.23
2019-01-23T14:38:38.130Z,12.90
2019-01-23T14:41:06.845Z,20.17
2019-01-23T14:43:35.578Z,16.90
2019-01-23T14:46:04.325Z,13.43
2019-01-23T14:48:32.999Z,11.67
2019-01-23T14:51:01.716Z,13.30
2019-01-23T14:53:30.689Z,13.23
2019-01-23T14:55:59.871Z,10.53
2019-01-23T14:58:28.662Z,23.05
2019-01-23T15:00:57.678Z,12.47
2019-01-23T15:03:26.621Z,14.07
2019-01-23T15:05:55.834Z,15.23
2019-01-23T15:08:24.806Z,15.33
2019-01-23T15:10:53.470Z,15.27
2019-01-23T15:13:22.895Z,15.95
2019-01-23T15:15:51.723Z,9.93
2019-01-23T15:18:20.489Z,9.50
2019-01-23T15:20:49.727Z,11.50
2019-01-23T15:23:18.414Z,11.53
2019-01-23T15:25:47.142Z,9.13
2019-01-23T15:28:16.098Z,18.03
2019-01-23T15:30:45.007Z,11.80
2019-01-23T15:33:13.940Z,10.30
2019-01-23T15:35:42.599Z,11.50
2019-01-23T15:38:11.667Z,10.47
2019-01-23T15:40:40.584Z,16.87
2019-01-23T15:43:09.734Z,11.43
2019-01-23T15:45:39.003Z,5.10
2019-01-23T15:48:07.821Z,4.77
2019-01-23T15:50:36.887Z,10.60
2019-01-23T15:53:07.862Z,13.50
2019-01-23T15:55:37.053Z,8.20
2019-01-23T15:58:05.978Z,11.07
2019-01-23T16:00:34.902Z,10.10
2019-01-23T16:03:03.774Z,10.43
2019-01-23T16:05:32.602Z,3.60
2019-01-23T16:08:01.321Z,8.93
2019-01-23T16:10:30.445Z,8.17
2019-01-23T16:12:59.240Z,7.17
2019-01-23T16:15:29.165Z,10.27
2019-01-23T16:17:58.238Z,5.20
2019-01-23T16:20:27.510Z,8.00
2019-01-23T16:22:56.586Z,6.60
2019-01-23T16:25:26.311Z,7.63
2019-01-23T16:27:55.261Z,8.43
2019-01-23T16:30:32.616Z,5.87
2019-01-23T16:33:01.319Z,6.25
2019-01-23T16:35:30.297Z,5.20
2019-01-23T16:37:59.607Z,6.17
2019-01-23T16:40:29.279Z,11.50
2019-01-23T16:43:00.487Z,9.60
2019-01-23T16:45:29.338Z,6.03
2019-01-23T16:47:58.250Z,6.83
2019-01-23T16:50:28.614Z,5.03
2019-01-23T16:53:00.115Z,3.67
2019-01-23T16:55:29.042Z,9.03
2019-01-23T16:57:57.807Z,7.20
2019-01-23T17:00:26.959Z,6.07
2019-01-23T17:02:56.458Z,5.83
2019-01-23T17:05:27.818Z,11.07
2019-01-23T17:07:58.001Z,10.47
2019-01-23T17:10:27.265Z,5.97
2019-01-23T17:12:56.118Z,5.10
2019-01-23T17:15:24.842Z,6.20
2019-01-23T17:17:56.045Z,3.67
2019-01-23T17:20:30.904Z,9.17
2019-01-23T17:22:59.704Z,7.33
2019-01-23T17:25:28.658Z,6.40
2019-01-23T17:27:57.415Z,11.87
2019-01-23T17:30:27.738Z,2.77
2019-01-23T17:32:56.406Z,8.50
2019-01-23T17:35:25.220Z,4.40
2019-01-23T17:37:54.105Z,3.23
2019-01-23T17:40:23.091Z,5.03
2019-01-23T17:42:51.818Z,4.00
2019-01-23T17:45:31.876Z,6.83
2019-01-23T17:48:00.814Z,4.07
2019-01-23T17:50:29.621Z,3.70
2019-01-23T17:52:58.866Z,9.77
2019-01-23T17:55:30.033Z,7.70
2019-01-23T17:57:59.232Z,6.70
2019-01-23T18:00:30.025Z,4.60
2019-01-23T18:02:59.222Z,3.43
2019-01-23T18:05:28.139Z,8.67
2019-01-23T18:07:57.225Z,6.87
2019-01-23T18:10:26.138Z,5.40
2019-01-23T18:12:55.149Z,7.77
2019-01-23T18:15:24.638Z,8.17
2019-01-23T18:17:53.513Z,7.20
2019-01-23T18:20:24.529Z,9.50
2019-01-23T18:22:53.401Z,5.93
2019-01-23T18:25:22.370Z,3.62
2019-01-23T18:27:51.255Z,5.73
2019-01-23T18:30:28.306Z,9.17
2019-01-23T18:33:00.110Z,4.80
2019-01-23T18:35:48.981Z,6.40
2019-01-23T18:38:30.954Z,11.30
2019-01-23T18:41:37.574Z,5.80
2019-01-23T18:44:29.078Z,4.13
2019-01-23T18:47:25.231Z,4.47
2019-01-23T18:50:24.350Z,2.43
2019-01-23T18:52:53.042Z,9.90
2019-01-23T18:55:23.417Z,8.20
2019-01-23T18:57:52.168Z,6.63
2019-01-23T19:00:22.092Z,6.20
2019-01-23T19:02:50.903Z,4.43
2019-01-23T19:05:19.858Z,11.90
2019-01-23T19:07:48.709Z,6.87
2019-01-23T19:10:17.658Z,6.47
2019-01-23T19:12:46.645Z,11.00
2019-01-23T19:15:17.265Z,4.57
2019-01-23T19:17:45.928Z,9.00
2019-01-23T19:20:17.411Z,5.87
2019-01-23T19:22:46.793Z,7.10
2019-01-23T19:25:15.851Z,6.10
2019-01-23T19:27:44.730Z,7.70
2019-01-23T19:30:16.604Z,8.23
2019-01-23T19:32:45.510Z,4.67
2019-01-23T19:35:14.797Z,9.67
2019-01-23T19:37:43.479Z,5.70
2019-01-23T19:40:12.731Z,7.17
2019-01-23T19:42:41.752Z,5.77
2019-01-23T19:45:19.122Z,4.30
2019-01-23T19:47:48.244Z,2.20
2019-01-23T19:50:17.251Z,9.90
2019-01-23T19:52:46.331Z,7.20
2019-01-23T19:55:16.694Z,6.30
2019-01-23T19:57:45.459Z,11.20
2019-01-23T20:00:17.849Z,6.13
2019-01-23T20:02:46.585Z,5.23
2019-01-23T20:05:17.818Z,4.63
2019-01-23T20:07:46.523Z,10.90
2019-01-23T20:10:18.921Z,4.57
2019-01-23T20:12:47.701Z,5.00
2019-01-23T20:15:17.453Z,7.57
2019-01-23T20:17:47.070Z,7.60
2019-01-23T20:20:16.025Z,7.37
2019-01-23T20:22:44.838Z,6.50
2019-01-23T20:25:21.937Z,13.97
2019-01-23T20:27:51.055Z,10.97
2019-01-23T20:30:29.009Z,8.50
2019-01-23T20:32:58.547Z,7.50
2019-01-23T20:35:27.422Z,7.50
2019-01-23T20:37:56.111Z,1.90
2019-01-23T20:40:25.155Z,10.73
2019-01-23T20:42:54.122Z,7.00
2019-01-23T20:45:23.370Z,9.00
2019-01-23T20:47:52.389Z,8.67
2019-01-23T20:50:23.506Z,11.17
2019-01-23T20:52:52.181Z,7.90
2019-01-23T20:55:21.072Z,13.72
2019-01-23T20:57:49.750Z,6.50
2019-01-23T21:00:20.790Z,10.53
2019-01-23T21:02:49.762Z,9.13
2019-01-23T21:05:18.497Z,6.40
2019-01-23T21:07:47.531Z,10.80
2019-01-23T21:10:17.305Z,6.47
2019-01-23T21:12:47.715Z,2.80
2019-01-23T21:15:24.946Z,6.70
2019-01-23T21:17:53.942Z,19.10
2019-01-23T21:20:22.610Z,9.10
2019-01-23T21:22:51.577Z,4.03
2019-01-23T21:25:20.258Z,6.80
2019-01-23T21:27:49.241Z,9.10
2019-01-23T21:30:20.683Z,8.07
2019-01-23T21:32:49.379Z,12.57
2019-01-23T21:35:18.452Z,12.13
2019-01-23T21:37:47.222Z,3.90
2019-01-23T21:40:18.504Z,5.83
2019-01-23T21:42:47.166Z,5.57
2019-01-23T21:45:16.569Z,12.30
2019-01-23T21:47:47.124Z,3.87
2019-01-23T21:50:17.669Z,7.30
2019-01-23T21:52:47.347Z,9.13
2019-01-23T21:55:17.753Z,12.10
2019-01-23T21:57:46.712Z,5.40
2019-01-23T22:00:19.318Z,9.83
2019-01-23T22:02:48.138Z,12.00
2019-01-23T22:05:16.888Z,7.67
2019-01-23T22:07:45.598Z,7.13
2019-01-23T22:10:14.533Z,10.25
2019-01-23T22:12:43.334Z,8.57
2019-01-23T22:15:13.972Z,7.67
2019-01-23T22:17:44.945Z,10.17
2019-01-23T22:20:15.751Z,12.20
2019-01-23T22:22:44.532Z,8.03
2019-01-23T22:25:14.886Z,12.77
2019-01-23T22:27:43.693Z,11.73
2019-01-23T22:30:15.329Z,9.27
2019-01-23T22:32:44.054Z,5.37
2019-01-23T22:35:12.861Z,6.00
2019-01-23T22:37:42.069Z,10.40
2019-01-23T22:40:11.740Z,6.73
2019-01-23T22:42:40.431Z,8.10
2019-01-23T22:45:11.576Z,9.50
2019-01-23T22:47:40.377Z,4.77
2019-01-23T22:50:11.953Z,7.50
2019-01-23T22:52:40.656Z,10.60
2019-01-23T22:55:09.906Z,5.70
2019-01-23T22:57:38.805Z,8.97
2019-01-23T23:00:29.768Z,6.13
2019-01-23T23:02:58.514Z,7.07
2019-01-23T23:05:27.162Z,4.17
2019-01-23T23:07:55.838Z,5.40
2019-01-23T23:10:25.114Z,8.10
2019-01-23T23:12:53.830Z,13.33
2019-01-23T23:15:22.523Z,5.20
2019-01-23T23:17:51.223Z,12.23
2019-01-23T23:20:19.886Z,6.33
2019-01-23T23:22:48.694Z,5.80
2019-01-23T23:25:17.685Z,10.40
2019-01-23T23:27:46.342Z,3.53
2019-01-23T23:30:16.178Z,6.07
2019-01-23T23:32:45.302Z,3.73
2019-01-23T23:35:14.077Z,8.30
2019-01-23T23:37:43.066Z,9.67
2019-01-23T23:40:12.551Z,3.87
2019-01-23T23:42:41.451Z,13.73
2019-01-23T23:45:10.837Z,3.60
2019-01-23T23:47:39.607Z,9.60
2019-01-23T23:50:10.253Z,14.30
2019-01-23T23:52:39.177Z,8.37
2019-01-23T23:55:08.537Z,10.60
2019-01-23T23:57:37.278Z,11.97
